createdAt,value
2017-02-26T00:00:50.978Z,1003.07
2017-02-26T00:02:01.000Z,1003.07
2017-02-26T00:03:11.788Z,1003.01
2017-02-26T00:04:22.192Z,1003.02
2017-02-26T00:05:32.590Z,1002.96
2017-02-26T00:06:42.585Z,1002.95
2017-02-26T00:07:53.380Z,1002.96
2017-02-26T00:09:03.786Z,1002.96
2017-02-26T00:10:14.215Z,1002.95
2017-02-26T00:11:25.004Z,1002.95
2017-02-26T00:12:35.766Z,1002.91
2017-02-26T00:13:45.346Z,1002.87
2017-02-26T00:14:55.725Z,1002.84
2017-02-26T00:16:06.519Z,1002.77
2017-02-26T00:17:16.900Z,1002.78
2017-02-26T00:18:27.281Z,1002.79
2017-02-26T00:19:36.862Z,1002.82
2017-02-26T00:20:47.687Z,1002.78
2017-02-26T00:21:58.477Z,1002.76
2017-02-26T00:23:08.861Z,1002.72
2017-02-26T00:24:19.645Z,1002.69
2017-02-26T00:25:30.455Z,1002.65
2017-02-26T00:26:40.500Z,1002.62
2017-02-26T00:27:51.366Z,1002.59
2017-02-26T00:29:01.380Z,1002.54
2017-02-26T00:30:11.796Z,1002.52
2017-02-26T00:31:22.596Z,1002.48
2017-02-26T00:32:33.400Z,1002.43
2017-02-26T00:33:44.183Z,1002.46
2017-02-26T00:34:54.580Z,1002.45
2017-02-26T00:36:04.982Z,1002.42
2017-02-26T00:37:15.784Z,1002.4
2017-02-26T00:38:26.185Z,1002.41
2017-02-26T00:39:36.173Z,1002.4
2017-02-26T00:40:46.977Z,1002.4
2017-02-26T00:41:57.364Z,1002.42
2017-02-26T00:43:08.173Z,1002.38
2017-02-26T00:44:18.951Z,1002.42
2017-02-26T00:45:29.795Z,1002.41
2017-02-26T00:46:40.187Z,1002.41
2017-02-26T00:47:50.569Z,1002.35
2017-02-26T00:49:01.355Z,1002.34
2017-02-26T00:50:12.142Z,1002.36
2017-02-26T00:51:22.155Z,1002.35
2017-02-26T00:52:32.959Z,1002.34
2017-02-26T00:53:43.345Z,1002.35
2017-02-26T00:54:54.135Z,1002.4
2017-02-26T00:56:04.516Z,1002.39
2017-02-26T00:57:15.328Z,1002.37
2017-02-26T00:58:26.106Z,1002.42
2017-02-26T00:59:36.523Z,1002.44
2017-02-26T01:00:46.529Z,1002.43
2017-02-26T01:01:56.541Z,1002.45
2017-02-26T01:03:06.930Z,1002.39
2017-02-26T01:04:17.728Z,1002.37
2017-02-26T01:05:28.120Z,1002.35
2017-02-26T01:06:38.494Z,1002.29
2017-02-26T01:07:48.474Z,1002.31
2017-02-26T01:08:59.280Z,1002.3
2017-02-26T01:10:10.071Z,1002.27
2017-02-26T01:11:20.847Z,1002.26
2017-02-26T01:12:31.669Z,1002.26
2017-02-26T01:13:42.457Z,1002.23
2017-02-26T01:14:53.269Z,1002.2
2017-02-26T01:16:03.647Z,1002.12
2017-02-26T01:17:14.436Z,1002.15
2017-02-26T01:18:25.214Z,1002.13
2017-02-26T01:19:36.022Z,1002.11
2017-02-26T01:20:46.417Z,1002.14
2017-02-26T01:21:57.193Z,1002.12
2017-02-26T01:23:06.787Z,1002.1
2017-02-26T01:24:17.574Z,1002.1
2017-02-26T01:25:28.354Z,1002.07
2017-02-26T01:26:38.335Z,1002
2017-02-26T01:27:48.316Z,1001.96
2017-02-26T01:28:58.710Z,1001.99
2017-02-26T01:30:09.101Z,1001.96
2017-02-26T01:31:19.116Z,1001.9
2017-02-26T01:32:29.484Z,1001.87
2017-02-26T01:33:39.466Z,1001.86
2017-02-26T01:34:49.864Z,1001.8
2017-02-26T01:36:00.645Z,1001.81
2017-02-26T01:37:11.031Z,1001.76
2017-02-26T01:38:21.804Z,1001.75
2017-02-26T01:39:32.169Z,1001.76
2017-02-26T01:40:42.145Z,1001.69
2017-02-26T01:41:52.914Z,1001.74
2017-02-26T01:43:03.291Z,1001.79
2017-02-26T01:44:14.077Z,1001.74
2017-02-26T01:45:24.475Z,1001.75
2017-02-26T01:46:35.281Z,1001.74
2017-02-26T01:47:45.655Z,1001.77
2017-02-26T01:48:55.231Z,1001.77
2017-02-26T01:50:05.618Z,1001.76
2017-02-26T01:51:16.001Z,1001.71
2017-02-26T01:52:26.357Z,1001.7
2017-02-26T01:53:36.740Z,1001.65
2017-02-26T01:54:47.531Z,1001.61
2017-02-26T01:55:57.902Z,1001.62
2017-02-26T01:57:07.923Z,1001.6
2017-02-26T01:58:18.706Z,1001.56
2017-02-26T01:59:28.677Z,1001.45
2017-02-26T02:00:39.051Z,1001.5
2017-02-26T02:01:49.877Z,1001.48
2017-02-26T02:03:00.321Z,1001.47
2017-02-26T02:04:11.116Z,1001.41
2017-02-26T02:05:21.882Z,1001.37
2017-02-26T02:06:32.274Z,1001.31
2017-02-26T02:07:43.061Z,1001.26
2017-02-26T02:08:53.820Z,1001.25
2017-02-26T02:10:04.634Z,1001.21
2017-02-26T02:11:15.437Z,1001.13
2017-02-26T02:12:25.844Z,1001.11
2017-02-26T02:13:35.819Z,1001.12
2017-02-26T02:14:45.795Z,1001.03
2017-02-26T02:15:55.766Z,1001.1
2017-02-26T02:17:06.166Z,1001.03
2017-02-26T02:18:16.146Z,1000.99
2017-02-26T02:19:26.526Z,1000.93
2017-02-26T02:20:36.913Z,1000.97
2017-02-26T02:21:47.315Z,1000.96
2017-02-26T02:22:57.691Z,1000.93
2017-02-26T02:24:08.075Z,1000.97
2017-02-26T02:25:18.455Z,1001.01
2017-02-26T02:26:28.818Z,1001.02
2017-02-26T02:27:38.787Z,1001.06
2017-02-26T02:28:49.179Z,1001.08
2017-02-26T02:29:59.557Z,1001.04
2017-02-26T02:31:09.950Z,1000.99
2017-02-26T02:32:20.754Z,1000.96
2017-02-26T02:33:31.521Z,1000.94
2017-02-26T02:34:41.891Z,1000.94
2017-02-26T02:35:52.672Z,1000.91
2017-02-26T02:37:03.075Z,1000.88
2017-02-26T02:38:13.850Z,1000.81
2017-02-26T02:39:24.266Z,1000.78
2017-02-26T02:40:35.043Z,1000.8
2017-02-26T02:41:45.801Z,1000.8
2017-02-26T02:42:56.181Z,1000.79
2017-02-26T02:44:06.206Z,1000.77
2017-02-26T02:45:16.588Z,1000.79
2017-02-26T02:46:26.579Z,1000.75
2017-02-26T02:47:37.356Z,1000.78
2017-02-26T02:48:47.741Z,1000.73
2017-02-26T02:49:58.499Z,1000.72
2017-02-26T02:51:08.885Z,1000.73
2017-02-26T02:52:19.681Z,1000.64
2017-02-26T02:53:30.054Z,1000.62
2017-02-26T02:54:40.439Z,1000.57
2017-02-26T02:55:51.214Z,1000.53
2017-02-26T02:57:01.216Z,1000.44
2017-02-26T02:58:12.032Z,1000.38
2017-02-26T02:59:22.428Z,1000.37
2017-02-26T03:00:33.261Z,1000.43
2017-02-26T03:31:55.792Z,1000.24
2017-02-26T03:33:06.604Z,1000.25
2017-02-26T03:34:16.993Z,1000.24
2017-02-26T03:35:27.765Z,1000.29
2017-02-26T03:36:38.558Z,1000.25
2017-02-26T03:37:49.361Z,1000.23
2017-02-26T03:39:00.157Z,1000.23
2017-02-26T03:40:10.140Z,1000.22
2017-02-26T03:41:20.920Z,1000.14
2017-02-26T03:42:30.929Z,1000.1
2017-02-26T03:43:41.301Z,1000.08
2017-02-26T03:44:52.070Z,1000.04
2017-02-26T03:46:02.827Z,1000.04
2017-02-26T03:47:12.819Z,1000
2017-02-26T03:48:23.234Z,1000.03
2017-02-26T03:49:33.619Z,1000.01
2017-02-26T03:50:43.599Z,999.98
2017-02-26T03:51:54.363Z,999.93
2017-02-26T03:53:05.141Z,999.94
2017-02-26T03:54:15.138Z,999.89
2017-02-26T03:55:25.512Z,999.9
2017-02-26T03:56:35.889Z,999.86
2017-02-26T03:57:46.249Z,999.88
2017-02-26T03:58:56.999Z,999.93
2017-02-26T04:00:07.389Z,999.93
2017-02-26T04:01:18.177Z,999.97
2017-02-26T04:02:28.946Z,1000.06
2017-02-26T04:03:39.388Z,1000.04
2017-02-26T04:04:49.762Z,1000.04
2017-02-26T04:06:00.142Z,999.99
2017-02-26T04:07:10.534Z,999.99
2017-02-26T04:08:20.940Z,999.99
2017-02-26T04:09:31.348Z,999.95
2017-02-26T04:10:41.355Z,999.98
2017-02-26T04:11:51.800Z,999.92
2017-02-26T04:13:02.182Z,999.94
2017-02-26T04:14:12.955Z,999.92
2017-02-26T04:15:22.937Z,999.91
2017-02-26T04:16:33.312Z,999.93
2017-02-26T04:17:43.685Z,999.9
2017-02-26T04:18:54.496Z,999.86
2017-02-26T04:20:04.537Z,999.84
2017-02-26T04:21:14.536Z,999.79
2017-02-26T04:22:25.306Z,999.79
2017-02-26T04:23:35.677Z,999.78
2017-02-26T04:24:46.049Z,999.8
2017-02-26T04:25:56.040Z,999.73
2017-02-26T04:27:06.869Z,999.72
2017-02-26T04:28:17.232Z,999.72
2017-02-26T04:29:27.612Z,999.75
2017-02-26T04:30:37.664Z,999.76
2017-02-26T04:31:48.444Z,999.78
2017-02-26T04:32:58.426Z,999.74
2017-02-26T04:34:08.404Z,999.76
2017-02-26T04:35:19.181Z,999.74
2017-02-26T04:36:29.946Z,999.72
2017-02-26T04:37:40.742Z,999.67
2017-02-26T04:38:51.509Z,999.62
2017-02-26T04:40:02.291Z,999.62
2017-02-26T04:41:12.668Z,999.6
2017-02-26T04:42:23.432Z,999.59
2017-02-26T04:43:33.847Z,999.58
2017-02-26T04:44:43.825Z,999.6
2017-02-26T04:45:54.581Z,999.59
2017-02-26T04:47:04.177Z,999.57
2017-02-26T04:48:14.575Z,999.52
2017-02-26T04:49:24.952Z,999.51
2017-02-26T04:50:35.729Z,999.51
2017-02-26T04:51:46.532Z,999.47
2017-02-26T04:52:56.114Z,999.46
2017-02-26T04:54:06.509Z,999.42
2017-02-26T04:55:17.285Z,999.39
2017-02-26T04:56:27.300Z,999.38
2017-02-26T04:57:38.074Z,999.45
2017-02-26T04:58:48.847Z,999.43
2017-02-26T04:59:59.644Z,999.48
2017-02-26T05:01:10.037Z,999.47
2017-02-26T05:02:20.804Z,999.53
2017-02-26T05:03:31.578Z,999.58
2017-02-26T05:04:41.944Z,999.61
2017-02-26T05:05:52.736Z,999.62
2017-02-26T05:07:03.163Z,999.64
2017-02-26T05:08:13.944Z,999.64
2017-02-26T05:09:24.327Z,999.58
2017-02-26T05:10:35.112Z,999.63
2017-02-26T05:11:45.885Z,999.61
2017-02-26T05:12:56.657Z,999.67
2017-02-26T05:14:06.246Z,999.66
2017-02-26T05:15:17.017Z,999.68
2017-02-26T05:16:26.997Z,999.68
2017-02-26T05:17:37.363Z,999.68
2017-02-26T05:18:48.145Z,999.66
2017-02-26T05:19:58.928Z,999.65
2017-02-26T05:21:08.119Z,999.65
2017-02-26T05:22:18.509Z,999.65
2017-02-26T05:23:28.907Z,999.68
2017-02-26T05:24:39.673Z,999.68
2017-02-26T05:25:50.051Z,999.7
2017-02-26T05:27:00.472Z,999.71
2017-02-26T05:28:10.842Z,999.71
2017-02-26T05:29:21.228Z,999.71
2017-02-26T05:30:31.610Z,999.68
2017-02-26T05:31:42.369Z,999.66
2017-02-26T05:32:53.135Z,999.67
2017-02-26T05:34:02.713Z,999.69
2017-02-26T05:35:12.723Z,999.7
2017-02-26T05:36:23.105Z,999.68
2017-02-26T05:37:33.477Z,999.71
2017-02-26T05:38:43.840Z,999.7
2017-02-26T05:39:54.219Z,999.75
2017-02-26T05:41:03.803Z,999.71
2017-02-26T05:42:14.608Z,999.68
2017-02-26T05:43:24.976Z,999.67
2017-02-26T05:44:35.353Z,999.6
2017-02-26T05:45:45.711Z,999.64
2017-02-26T05:46:55.316Z,999.62
2017-02-26T05:48:05.304Z,999.6
2017-02-26T05:49:16.078Z,999.58
2017-02-26T05:50:26.860Z,999.56
2017-02-26T05:51:37.253Z,999.6
2017-02-26T05:52:47.656Z,999.6
2017-02-26T05:53:58.449Z,999.64
2017-02-26T05:55:08.053Z,999.61
2017-02-26T05:56:18.838Z,999.6
2017-02-26T05:57:29.615Z,999.65
2017-02-26T05:58:39.615Z,999.69
2017-02-26T05:59:50.409Z,999.75
2017-02-26T06:01:00.394Z,999.78
2017-02-26T06:02:11.169Z,999.78
2017-02-26T06:03:21.947Z,999.82
2017-02-26T06:04:31.981Z,999.78
2017-02-26T06:05:42.754Z,999.79
2017-02-26T06:06:53.552Z,999.76
2017-02-26T06:08:04.316Z,999.79
2017-02-26T06:09:14.716Z,999.77
2017-02-26T06:10:25.486Z,999.79
2017-02-26T06:11:36.289Z,999.78
2017-02-26T06:12:47.082Z,999.83
2017-02-26T06:13:57.841Z,999.84
2017-02-26T06:15:08.244Z,999.81
2017-02-26T06:16:18.618Z,999.81
2017-02-26T06:17:28.201Z,999.89
2017-02-26T06:18:38.231Z,999.93
2017-02-26T06:19:49.063Z,999.97
2017-02-26T06:20:59.461Z,999.96
2017-02-26T06:22:10.078Z,1000
2017-02-26T06:23:20.462Z,1000.03
2017-02-26T06:24:31.248Z,1000.03
2017-02-26T06:25:41.233Z,1000.1
2017-02-26T06:26:52.015Z,1000.08
2017-02-26T06:28:02.775Z,1000.09
2017-02-26T06:29:13.604Z,1000.05
2017-02-26T06:30:23.983Z,1000.06
2017-02-26T06:31:34.761Z,1000.02
2017-02-26T06:32:45.139Z,1000.03
2017-02-26T06:33:54.753Z,1000.03
2017-02-26T06:35:04.755Z,999.99
2017-02-26T06:36:15.158Z,1000.04
2017-02-26T06:37:25.956Z,1000.01
2017-02-26T06:38:36.335Z,1000.04
2017-02-26T06:39:47.134Z,1000.05
2017-02-26T06:40:57.120Z,1000.02
2017-02-26T06:42:07.103Z,1000.01
2017-02-26T06:43:17.903Z,999.99
2017-02-26T06:44:28.286Z,999.98
2017-02-26T06:45:38.257Z,1000.02
2017-02-26T06:46:48.655Z,1000.04
2017-02-26T06:47:58.650Z,1000.06
2017-02-26T06:49:09.036Z,1000.06
2017-02-26T06:50:19.814Z,1000.07
2017-02-26T06:51:30.215Z,1000.07
2017-02-26T06:52:40.593Z,1000.04
2017-02-26T06:53:51.380Z,1000.06
2017-02-26T06:55:02.384Z,1000.04
2017-02-26T06:56:12.774Z,1000.08
2017-02-26T06:57:22.776Z,1000.06
2017-02-26T06:58:33.164Z,1000.06
2017-02-26T06:59:43.948Z,1000.11
2017-02-26T07:00:54.742Z,1000.1
2017-02-26T07:02:04.752Z,1000.1
2017-02-26T07:03:15.125Z,1000.11
2017-02-26T07:04:25.900Z,1000.11
2017-02-26T07:05:36.698Z,1000.1
2017-02-26T07:06:47.082Z,1000.07
2017-02-26T07:07:57.845Z,1000.05
2017-02-26T07:09:07.863Z,1000.1
2017-02-26T07:10:18.625Z,1000.14
2017-02-26T07:11:29.417Z,1000.11
2017-02-26T07:12:40.223Z,1000.14
2017-02-26T07:13:50.648Z,1000.11
2017-02-26T07:15:01.421Z,1000.1
2017-02-26T07:16:12.203Z,1000.03
2017-02-26T07:17:22.584Z,999.99
2017-02-26T07:18:32.570Z,999.93
2017-02-26T07:19:43.352Z,999.92
2017-02-26T07:20:54.149Z,999.96
2017-02-26T07:22:04.983Z,999.92
2017-02-26T07:23:14.981Z,999.9
2017-02-26T07:24:25.754Z,999.92
2017-02-26T07:25:36.545Z,999.91
2017-02-26T07:26:47.328Z,999.9
2017-02-26T07:27:58.121Z,999.9
2017-02-26T07:29:08.113Z,999.96
2017-02-26T07:30:18.901Z,1000
2017-02-26T07:31:29.301Z,1000.01
2017-02-26T07:32:40.079Z,999.99
2017-02-26T07:33:50.871Z,1000.03
2017-02-26T07:35:00.915Z,1000.02
2017-02-26T07:36:11.685Z,1000.01
2017-02-26T07:37:22.478Z,1000.07
2017-02-26T07:38:33.256Z,1000.05
2017-02-26T07:39:43.641Z,1000.07
2017-02-26T07:40:54.026Z,1000.09
2017-02-26T07:42:03.629Z,1000.08
2017-02-26T07:43:13.646Z,1000.1
2017-02-26T07:44:24.054Z,1000.12
2017-02-26T07:45:34.060Z,1000.21
2017-02-26T07:46:44.463Z,1000.29
2017-02-26T07:47:54.443Z,1000.31
2017-02-26T07:49:05.248Z,1000.39
2017-02-26T07:50:14.826Z,1000.43
2017-02-26T07:51:25.206Z,1000.47
2017-02-26T07:52:36.031Z,1000.54
2017-02-26T07:53:46.414Z,1000.54
2017-02-26T07:54:56.795Z,1000.54
2017-02-26T07:56:06.797Z,1000.59
2017-02-26T07:57:16.799Z,1000.56
2017-02-26T07:58:27.186Z,1000.52
2017-02-26T07:59:37.965Z,1000.56
2017-02-26T08:00:48.746Z,1000.51
2017-02-26T08:01:59.516Z,1000.55
2017-02-26T08:03:09.901Z,1000.62
2017-02-26T08:04:20.283Z,1000.63
2017-02-26T08:05:30.669Z,1000.62
2017-02-26T08:06:41.078Z,1000.59
2017-02-26T08:07:51.870Z,1000.58
2017-02-26T08:09:02.285Z,1000.62
2017-02-26T08:10:12.655Z,1000.59
2017-02-26T08:11:23.411Z,1000.56
2017-02-26T08:12:34.212Z,1000.54
2017-02-26T08:13:44.994Z,1000.53
2017-02-26T08:14:55.368Z,1000.51
2017-02-26T08:16:06.164Z,1000.45
2017-02-26T08:17:16.556Z,1000.46
2017-02-26T08:18:27.335Z,1000.42
2017-02-26T08:19:37.720Z,1000.38
2017-02-26T08:20:48.120Z,1000.4
2017-02-26T08:21:58.896Z,1000.42
2017-02-26T08:23:09.259Z,1000.39
2017-02-26T08:24:20.055Z,1000.35
2017-02-26T08:25:30.433Z,1000.32
2017-02-26T08:26:40.410Z,1000.28
2017-02-26T08:27:50.816Z,1000.28
2017-02-26T08:29:00.813Z,1000.34
2017-02-26T08:30:10.806Z,1000.34
2017-02-26T08:31:21.578Z,1000.32
2017-02-26T08:32:31.986Z,1000.36
2017-02-26T08:33:42.380Z,1000.33
2017-02-26T08:34:53.181Z,1000.37
2017-02-26T08:36:03.568Z,1000.39
2017-02-26T08:37:13.955Z,1000.43
2017-02-26T08:38:24.346Z,1000.44
2017-02-26T08:39:35.134Z,1000.52
2017-02-26T08:40:45.537Z,1000.52
2017-02-26T08:41:55.922Z,1000.56
2017-02-26T08:43:06.744Z,1000.55
2017-02-26T08:44:17.521Z,1000.57
2017-02-26T08:45:28.325Z,1000.57
2017-02-26T08:46:39.103Z,1000.56
2017-02-26T08:47:49.886Z,1000.54
2017-02-26T08:49:00.656Z,1000.51
2017-02-26T08:50:11.458Z,1000.52
2017-02-26T08:51:21.868Z,1000.54
2017-02-26T08:52:32.668Z,1000.52
2017-02-26T08:53:43.098Z,1000.55
2017-02-26T08:54:53.486Z,1000.53
2017-02-26T08:56:03.869Z,1000.54
2017-02-26T08:57:14.657Z,1000.51
2017-02-26T08:58:25.041Z,1000.5
2017-02-26T08:59:35.026Z,1000.51
2017-02-26T09:00:45.826Z,1000.45
2017-02-26T09:01:55.811Z,1000.46
2017-02-26T09:03:06.278Z,1000.42
2017-02-26T09:04:17.075Z,1000.38
2017-02-26T09:05:27.512Z,1000.39
2017-02-26T09:06:37.958Z,1000.37
2017-02-26T09:07:48.771Z,1000.39
2017-02-26T09:08:59.563Z,1000.35
2017-02-26T09:10:09.971Z,1000.35
2017-02-26T09:11:20.760Z,1000.36
2017-02-26T09:12:30.373Z,1000.38
2017-02-26T09:13:40.388Z,1000.41
2017-02-26T09:14:50.794Z,1000.39
2017-02-26T09:16:01.607Z,1000.45
2017-02-26T09:17:12.399Z,1000.53
2017-02-26T09:18:22.392Z,1000.59
2017-02-26T09:19:32.010Z,1000.62
2017-02-26T09:20:42.816Z,1000.55
2017-02-26T09:21:53.242Z,1000.57
2017-02-26T09:23:03.683Z,1000.55
2017-02-26T09:24:14.135Z,1000.55
2017-02-26T09:25:24.919Z,1000.55
2017-02-26T09:26:34.908Z,1000.54
2017-02-26T09:27:44.904Z,1000.58
2017-02-26T09:28:54.935Z,1000.6
2017-02-26T09:30:05.778Z,1000.65
2017-02-26T09:31:16.192Z,1000.63
2017-02-26T09:32:26.588Z,1000.65
2017-02-26T09:33:37.362Z,1000.57
2017-02-26T09:34:47.375Z,1000.51
2017-02-26T09:35:57.761Z,1000.54
2017-02-26T09:37:08.552Z,1000.46
2017-02-26T09:38:19.357Z,1000.47
2017-02-26T09:39:29.771Z,1000.49
2017-02-26T09:40:40.567Z,1000.43
2017-02-26T09:41:51.334Z,1000.34
2017-02-26T09:43:02.148Z,1000.32
2017-02-26T09:44:12.955Z,1000.33
2017-02-26T09:45:23.775Z,1000.37
2017-02-26T09:46:33.783Z,1000.33
2017-02-26T09:47:44.180Z,1000.31
2017-02-26T09:48:54.566Z,1000.31
2017-02-26T09:50:04.557Z,1000.31
2017-02-26T09:51:14.946Z,1000.37
2017-02-26T09:52:25.732Z,1000.32
2017-02-26T09:53:36.558Z,1000.41
2017-02-26T09:54:46.948Z,1000.37
2017-02-26T09:55:57.742Z,1000.47
2017-02-26T09:57:08.528Z,1000.51
2017-02-26T09:58:19.338Z,1000.47
2017-02-26T09:59:30.132Z,1000.49
2017-02-26T10:00:40.532Z,1000.5
2017-02-26T10:01:50.934Z,1000.52
2017-02-26T10:03:01.721Z,1000.53
2017-02-26T10:04:12.140Z,1000.51
2017-02-26T10:05:23.164Z,1000.53
2017-02-26T10:06:33.557Z,1000.56
2017-02-26T10:07:44.338Z,1000.59
2017-02-26T10:08:55.124Z,1000.55
2017-02-26T10:10:05.913Z,1000.5
2017-02-26T10:11:16.692Z,1000.54
2017-02-26T10:12:27.106Z,1000.52
2017-02-26T10:13:37.951Z,1000.49
2017-02-26T10:14:47.953Z,1000.52
2017-02-26T10:15:58.764Z,1000.53
2017-02-26T10:17:09.577Z,1000.48
2017-02-26T10:18:19.613Z,1000.56
2017-02-26T10:19:30.044Z,1000.47
2017-02-26T10:20:40.423Z,1000.43
2017-02-26T10:21:50.829Z,1000.45
2017-02-26T10:23:01.610Z,1000.41
2017-02-26T10:24:12.402Z,1000.41
2017-02-26T10:25:22.784Z,1000.4
2017-02-26T10:26:33.564Z,1000.39
2017-02-26T10:27:43.972Z,1000.37
2017-02-26T10:28:54.404Z,1000.34
2017-02-26T10:30:04.431Z,1000.32
2017-02-26T10:31:14.451Z,1000.31
2017-02-26T10:32:24.851Z,1000.31
2017-02-26T10:33:35.267Z,1000.37
2017-02-26T10:34:46.077Z,1000.3
2017-02-26T10:35:56.469Z,1000.29
2017-02-26T10:37:06.887Z,1000.28
2017-02-26T10:38:16.901Z,1000.31
2017-02-26T10:39:27.315Z,1000.33
2017-02-26T10:40:38.131Z,1000.29
2017-02-26T10:41:48.907Z,1000.3
2017-02-26T10:42:59.296Z,1000.26
2017-02-26T10:44:09.707Z,1000.26
2017-02-26T10:45:20.131Z,1000.26
2017-02-26T10:46:30.540Z,1000.3
2017-02-26T10:47:40.536Z,1000.26
2017-02-26T10:48:50.156Z,1000.27
2017-02-26T10:50:00.951Z,1000.28
2017-02-26T10:51:11.783Z,1000.28
2017-02-26T10:52:22.593Z,1000.26
2017-02-26T10:53:33.413Z,1000.25
2017-02-26T10:54:43.814Z,1000.23
2017-02-26T10:55:54.639Z,1000.2
2017-02-26T10:57:05.435Z,1000.13
2017-02-26T10:58:16.225Z,1000.15
2017-02-26T10:59:26.605Z,1000.18
2017-02-26T11:00:36.641Z,1000.19
2017-02-26T11:01:46.658Z,1000.15
2017-02-26T11:02:57.428Z,1000.14
2017-02-26T11:04:07.878Z,1000.2
2017-02-26T11:05:18.643Z,1000.17
2017-02-26T11:06:29.070Z,1000.14
2017-02-26T11:07:39.862Z,1000.11
2017-02-26T11:08:50.642Z,1000.09
2017-02-26T11:10:00.634Z,1000.08
2017-02-26T11:11:11.025Z,1000.06
2017-02-26T11:12:21.827Z,1000.09
2017-02-26T11:13:32.656Z,1000.1
2017-02-26T11:14:43.056Z,1000.11
2017-02-26T11:15:53.845Z,1000.13
2017-02-26T11:17:04.644Z,1000.13
2017-02-26T11:18:14.247Z,1000.09
2017-02-26T11:19:24.250Z,1000.1
2017-02-26T11:20:34.247Z,1000.05
2017-02-26T11:21:45.052Z,1000.08
2017-02-26T11:22:55.429Z,1000.03
2017-02-26T11:24:06.233Z,1000.02
2017-02-26T11:25:17.048Z,999.98
2017-02-26T11:26:27.085Z,999.99
2017-02-26T11:27:37.875Z,999.97
2017-02-26T11:28:48.645Z,999.98
2017-02-26T11:29:59.433Z,1000.02
2017-02-26T11:31:10.244Z,1000
2017-02-26T11:32:20.245Z,1000
2017-02-26T11:33:31.059Z,1000.01
2017-02-26T11:34:41.447Z,1000
2017-02-26T11:35:51.847Z,1000
2017-02-26T11:37:02.640Z,1000
2017-02-26T11:38:13.031Z,999.98
2017-02-26T11:39:23.468Z,999.97
2017-02-26T11:40:34.285Z,999.94
2017-02-26T11:41:44.694Z,999.96
2017-02-26T11:42:55.108Z,999.94
2017-02-26T11:44:05.895Z,999.9
2017-02-26T11:45:16.322Z,999.9
2017-02-26T11:46:27.100Z,999.84
2017-02-26T11:47:37.170Z,999.81
2017-02-26T11:48:47.994Z,999.82
2017-02-26T11:49:58.407Z,999.79
2017-02-26T11:51:09.254Z,999.8
2017-02-26T11:52:20.048Z,999.81
2017-02-26T11:53:30.459Z,999.75
2017-02-26T11:54:41.261Z,999.74
2017-02-26T11:55:51.657Z,999.76
2017-02-26T11:57:02.038Z,999.72
2017-02-26T11:58:13.054Z,999.75
2017-02-26T11:59:23.865Z,999.74
2017-02-26T12:00:34.282Z,999.67
2017-02-26T12:01:45.101Z,999.67
2017-02-26T12:02:55.518Z,999.69
2017-02-26T12:04:05.944Z,999.59
2017-02-26T12:05:15.920Z,999.58
2017-02-26T12:06:25.961Z,999.51
2017-02-26T12:07:36.789Z,999.56
2017-02-26T12:08:46.806Z,999.57
2017-02-26T12:09:57.192Z,999.51
2017-02-26T12:11:08.019Z,999.49
2017-02-26T12:12:19.056Z,999.48
2017-02-26T12:13:29.458Z,999.45
2017-02-26T12:14:39.450Z,999.43
2017-02-26T12:15:50.240Z,999.44
2017-02-26T12:17:00.640Z,999.41
2017-02-26T12:18:11.049Z,999.39
2017-02-26T12:19:21.452Z,999.33
2017-02-26T12:20:31.043Z,999.32
2017-02-26T12:21:41.860Z,999.33
2017-02-26T12:22:52.261Z,999.31
2017-02-26T12:24:02.649Z,999.3
2017-02-26T12:25:13.046Z,999.31
2017-02-26T12:26:23.444Z,999.33
2017-02-26T12:27:33.868Z,999.34
2017-02-26T12:28:44.268Z,999.33
2017-02-26T12:29:54.663Z,999.32
2017-02-26T12:31:05.063Z,999.27
2017-02-26T12:32:15.459Z,999.28
2017-02-26T12:33:26.236Z,999.28
2017-02-26T12:34:36.634Z,999.25
2017-02-26T12:35:47.032Z,999.21
2017-02-26T12:36:57.438Z,999.2
2017-02-26T12:38:08.247Z,999.21
2017-02-26T12:39:18.660Z,999.19
2017-02-26T12:40:28.662Z,999.14
2017-02-26T12:41:39.056Z,999.14
2017-02-26T12:42:49.834Z,999.17
2017-02-26T12:44:00.617Z,999.13
2017-02-26T12:45:11.388Z,999.13
2017-02-26T12:46:22.164Z,999.11
2017-02-26T12:47:32.558Z,999.09
2017-02-26T12:48:43.394Z,999.11
2017-02-26T12:49:54.202Z,999.13
2017-02-26T12:51:04.971Z,999.08
2017-02-26T12:52:15.765Z,999.07
2017-02-26T12:53:26.550Z,999.13
2017-02-26T12:54:37.340Z,999.08
2017-02-26T12:55:47.740Z,999.08
2017-02-26T12:56:58.123Z,999.05
2017-02-26T12:58:08.909Z,999.05
2017-02-26T12:59:19.305Z,999.05
2017-02-26T13:00:29.316Z,999.06
2017-02-26T13:01:39.737Z,999.05
2017-02-26T13:02:50.145Z,999.06
2017-02-26T13:04:00.553Z,999.02
2017-02-26T13:05:10.554Z,999.04
2017-02-26T13:06:20.939Z,999.02
2017-02-26T13:07:31.723Z,998.95
2017-02-26T13:08:41.715Z,998.92
2017-02-26T13:09:52.490Z,998.91
2017-02-26T13:11:03.277Z,998.92
2017-02-26T13:12:13.665Z,998.91
2017-02-26T13:13:24.441Z,998.94
2017-02-26T13:14:35.230Z,998.96
2017-02-26T13:15:45.685Z,998.91
2017-02-26T13:16:56.565Z,998.93
2017-02-26T13:18:07.376Z,998.91
2017-02-26T13:19:18.162Z,998.93
2017-02-26T13:20:28.956Z,998.93
2017-02-26T13:21:39.780Z,998.91
2017-02-26T13:22:50.557Z,998.88
2017-02-26T13:24:00.945Z,998.85
2017-02-26T13:25:10.984Z,998.79
2017-02-26T13:26:21.392Z,998.81
2017-02-26T13:27:32.220Z,998.79
2017-02-26T13:28:42.604Z,998.78
2017-02-26T13:29:53.409Z,998.78
2017-02-26T13:31:04.231Z,998.8
2017-02-26T13:32:15.039Z,998.8
2017-02-26T13:33:25.447Z,998.8
2017-02-26T13:34:36.229Z,998.79
2017-02-26T13:35:46.623Z,998.79
2017-02-26T13:36:56.644Z,998.82
2017-02-26T13:38:07.443Z,998.76
2017-02-26T13:39:17.825Z,998.78
2017-02-26T13:40:27.838Z,998.79
2017-02-26T13:41:38.622Z,998.8
2017-02-26T13:42:49.409Z,998.83
2017-02-26T13:43:59.012Z,998.82
2017-02-26T13:45:09.432Z,998.8
2017-02-26T13:46:20.230Z,998.8
2017-02-26T13:47:31.000Z,998.76
2017-02-26T13:48:41.797Z,998.78
2017-02-26T13:49:52.598Z,998.77
2017-02-26T13:51:03.410Z,998.77
2017-02-26T13:52:13.831Z,998.74
2017-02-26T13:53:24.630Z,998.74
2017-02-26T13:54:35.415Z,998.72
2017-02-26T13:55:45.813Z,998.74
2017-02-26T13:56:56.198Z,998.71
2017-02-26T13:58:07.006Z,998.72
2017-02-26T13:59:17.427Z,998.66
2017-02-26T14:00:28.196Z,998.65
2017-02-26T14:01:39.000Z,998.62
2017-02-26T14:02:49.789Z,998.6
2017-02-26T14:04:00.581Z,998.64
2017-02-26T14:05:11.353Z,998.62
2017-02-26T14:06:21.382Z,998.65
2017-02-26T14:07:32.187Z,998.63
2017-02-26T14:08:42.983Z,998.63
2017-02-26T14:09:53.797Z,998.59
2017-02-26T14:11:04.197Z,998.61
2017-02-26T14:12:14.580Z,998.63
2017-02-26T14:13:24.576Z,998.6
2017-02-26T14:14:34.986Z,998.6
2017-02-26T14:15:45.386Z,998.59
2017-02-26T14:16:55.789Z,998.6
2017-02-26T14:18:06.202Z,998.61
2017-02-26T14:19:16.985Z,998.57
2017-02-26T14:20:27.774Z,998.57
2017-02-26T14:21:38.177Z,998.55
2017-02-26T14:22:48.608Z,998.5
2017-02-26T14:23:59.415Z,998.51
2017-02-26T14:25:09.416Z,998.5
2017-02-26T14:26:20.221Z,998.51
2017-02-26T14:27:31.016Z,998.55
2017-02-26T14:28:41.826Z,998.5
2017-02-26T14:29:52.637Z,998.52
2017-02-26T14:31:03.027Z,998.53
2017-02-26T14:32:13.844Z,998.51
2017-02-26T14:33:24.654Z,998.51
2017-02-26T14:34:35.057Z,998.5
2017-02-26T14:35:45.852Z,998.51
2017-02-26T14:36:56.628Z,998.56
2017-02-26T14:38:07.029Z,998.49
2017-02-26T14:39:17.837Z,998.53
2017-02-26T14:40:28.245Z,998.57
2017-02-26T14:41:38.636Z,998.54
2017-02-26T14:42:49.433Z,998.53
2017-02-26T14:43:59.846Z,998.56
2017-02-26T14:45:09.911Z,998.57
2017-02-26T14:46:20.312Z,998.59
2017-02-26T14:47:31.125Z,998.62
2017-02-26T14:48:41.912Z,998.63
2017-02-26T14:49:52.699Z,998.62
2017-02-26T14:51:03.509Z,998.62
2017-02-26T14:52:13.511Z,998.62
2017-02-26T14:53:24.324Z,998.62
2017-02-26T14:54:34.729Z,998.61
2017-02-26T14:55:45.522Z,998.63
2017-02-26T14:56:55.913Z,998.61
2017-02-26T14:58:06.689Z,998.63